sensor_id;sensor_type;location;lat;lon;timestamp;temperature;humidity
51613;DHT22;37694;51.748;14.326;2022-10-22T00:02:05;23.50;50.90
51613;DHT22;37694;51.748;14.326;2022-10-22T00:04:33;23.50;51.00
51613;DHT22;37694;51.748;14.326;2022-10-22T00:06:58;23.50;50.90
51613;DHT22;37694;51.748;14.326;2022-10-22T00:09:24;23.50;51.00
51613;DHT22;37694;51.748;14.326;2022-10-22T00:11:50;23.50;51.00
51613;DHT22;37694;51.748;14.326;2022-10-22T00:14:16;23.50;51.00
51613;DHT22;37694;51.748;14.326;2022-10-22T00:16:41;23.50;51.00
51613;DHT22;37694;51.748;14.326;2022-10-22T00:19:07;23.50;51.00
51613;DHT22;37694;51.748;14.326;2022-10-22T00:21:34;23.50;51.00
51613;DHT22;37694;51.748;14.326;2022-10-22T00:24:00;23.50;51.00
51613;DHT22;37694;51.748;14.326;2022-10-22T00:26:26;23.50;51.00
51613;DHT22;37694;51.748;14.326;2022-10-22T00:28:52;23.50;51.00
51613;DHT22;37694;51.748;14.326;2022-10-22T00:31:17;23.50;51.00
51613;DHT22;37694;51.748;14.326;2022-10-22T00:33:46;23.50;51.10
51613;DHT22;37694;51.748;14.326;2022-10-22T00:36:12;23.40;51.00
51613;DHT22;37694;51.748;14.326;2022-10-22T00:38:38;23.50;51.10
51613;DHT22;37694;51.748;14.326;2022-10-22T00:41:05;23.40;51.00
51613;DHT22;37694;51.748;14.326;2022-10-22T00:43:31;23.40;51.00
51613;DHT22;37694;51.748;14.326;2022-10-22T00:45:56;23.50;51.00
51613;DHT22;37694;51.748;14.326;2022-10-22T00:48:25;23.40;51.00
51613;DHT22;37694;51.748;14.326;2022-10-22T00:51:00;23.40;51.00
51613;DHT22;37694;51.748;14.326;2022-10-22T00:53:45;23.40;51.00
51613;DHT22;37694;51.748;14.326;2022-10-22T00:56:12;23.50;51.10
51613;DHT22;37694;51.748;14.326;2022-10-22T00:58:44;23.50;51.10
51613;DHT22;37694;51.748;14.326;2022-10-22T01:01:16;23.40;51.10
51613;DHT22;37694;51.748;14.326;2022-10-22T01:03:42;23.50;51.10
51613;DHT22;37694;51.748;14.326;2022-10-22T01:06:11;23.40;51.10
51613;DHT22;37694;51.748;14.326;2022-10-22T01:13:55;23.40;51.20
51613;DHT22;37694;51.748;14.326;2022-10-22T01:22:53;23.40;51.40
51613;DHT22;37694;51.748;14.326;2022-10-22T01:25:34;23.40;51.50
51613;DHT22;37694;51.748;14.326;2022-10-22T01:30:57;23.30;51.40
51613;DHT22;37694;51.748;14.326;2022-10-22T01:33:24;23.30;51.50
51613;DHT22;37694;51.748;14.326;2022-10-22T01:35:51;23.30;51.50
51613;DHT22;37694;51.748;14.326;2022-10-22T01:38:20;23.30;51.50
51613;DHT22;37694;51.748;14.326;2022-10-22T01:40:48;23.30;51.40
51613;DHT22;37694;51.748;14.326;2022-10-22T01:43:14;23.30;51.60
51613;DHT22;37694;51.748;14.326;2022-10-22T01:46:01;23.30;51.40
51613;DHT22;37694;51.748;14.326;2022-10-22T01:54:25;23.30;51.50
51613;DHT22;37694;51.748;14.326;2022-10-22T02:02:31;23.30;51.50
51613;DHT22;37694;51.748;14.326;2022-10-22T02:05:45;23.30;51.50
51613;DHT22;37694;51.748;14.326;2022-10-22T02:08:16;23.30;51.60
51613;DHT22;37694;51.748;14.326;2022-10-22T02:10:44;23.20;51.50
51613;DHT22;37694;51.748;14.326;2022-10-22T02:13:15;23.30;51.60
51613;DHT22;37694;51.748;14.326;2022-10-22T02:15:44;23.30;51.50
51613;DHT22;37694;51.748;14.326;2022-10-22T02:18:11;23.30;51.50
51613;DHT22;37694;51.748;14.326;2022-10-22T02:20:38;23.30;51.50
51613;DHT22;37694;51.748;14.326;2022-10-22T02:23:05;23.30;51.50
51613;DHT22;37694;51.748;14.326;2022-10-22T02:25:37;23.30;51.50
51613;DHT22;37694;51.748;14.326;2022-10-22T02:30:51;23.20;51.40
51613;DHT22;37694;51.748;14.326;2022-10-22T02:33:23;23.20;51.50
51613;DHT22;37694;51.748;14.326;2022-10-22T02:35:51;23.20;51.50
51613;DHT22;37694;51.748;14.326;2022-10-22T02:38:18;23.20;51.50
51613;DHT22;37694;51.748;14.326;2022-10-22T02:40:44;23.20;51.70
51613;DHT22;37694;51.748;14.326;2022-10-22T02:43:10;23.20;51.60
51613;DHT22;37694;51.748;14.326;2022-10-22T02:45:36;23.20;51.50
51613;DHT22;37694;51.748;14.326;2022-10-22T02:48:03;23.20;51.50
51613;DHT22;37694;51.748;14.326;2022-10-22T02:50:29;23.20;51.60
51613;DHT22;37694;51.748;14.326;2022-10-22T02:52:54;23.20;51.70
51613;DHT22;37694;51.748;14.326;2022-10-22T02:55:20;23.20;51.70
51613;DHT22;37694;51.748;14.326;2022-10-22T02:57:46;23.20;51.60
51613;DHT22;37694;51.748;14.326;2022-10-22T03:00:12;23.20;51.70
51613;DHT22;37694;51.748;14.326;2022-10-22T03:02:38;23.20;51.70
51613;DHT22;37694;51.748;14.326;2022-10-22T03:05:04;23.20;51.60
51613;DHT22;37694;51.748;14.326;2022-10-22T03:07:29;23.20;51.60
51613;DHT22;37694;51.748;14.326;2022-10-22T03:09:55;23.20;51.70
51613;DHT22;37694;51.748;14.326;2022-10-22T03:12:20;23.20;51.60
51613;DHT22;37694;51.748;14.326;2022-10-22T03:14:46;23.20;51.50
51613;DHT22;37694;51.748;14.326;2022-10-22T03:17:12;23.20;51.50
51613;DHT22;37694;51.748;14.326;2022-10-22T03:19:37;23.20;51.50
51613;DHT22;37694;51.748;14.326;2022-10-22T03:22:10;23.20;51.60
51613;DHT22;37694;51.748;14.326;2022-10-22T03:24:41;23.20;51.60
51613;DHT22;37694;51.748;14.326;2022-10-22T03:27:07;23.20;51.60
51613;DHT22;37694;51.748;14.326;2022-10-22T03:29:36;23.20;51.70
51613;DHT22;37694;51.748;14.326;2022-10-22T03:32:03;23.20;51.70
51613;DHT22;37694;51.748;14.326;2022-10-22T03:34:29;23.20;51.70
51613;DHT22;37694;51.748;14.326;2022-10-22T03:36:56;23.20;51.70
51613;DHT22;37694;51.748;14.326;2022-10-22T03:39:22;23.10;51.60
51613;DHT22;37694;51.748;14.326;2022-10-22T03:41:49;23.20;51.70
51613;DHT22;37694;51.748;14.326;2022-10-22T03:44:16;23.10;51.70
51613;DHT22;37694;51.748;14.326;2022-10-22T03:46:42;23.10;52.40
51613;DHT22;37694;51.748;14.326;2022-10-22T03:49:08;23.20;51.70
51613;DHT22;37694;51.748;14.326;2022-10-22T03:51:34;23.10;51.70
51613;DHT22;37694;51.748;14.326;2022-10-22T03:54:00;23.20;51.70
51613;DHT22;37694;51.748;14.326;2022-10-22T03:56:26;23.10;51.70
51613;DHT22;37694;51.748;14.326;2022-10-22T03:58:55;23.10;51.80
51613;DHT22;37694;51.748;14.326;2022-10-22T04:01:21;23.10;51.70
51613;DHT22;37694;51.748;14.326;2022-10-22T04:03:46;23.10;51.70
51613;DHT22;37694;51.748;14.326;2022-10-22T04:06:12;23.10;51.70
51613;DHT22;37694;51.748;14.326;2022-10-22T04:08:39;23.10;51.80
51613;DHT22;37694;51.748;14.326;2022-10-22T04:11:05;23.10;51.80
51613;DHT22;37694;51.748;14.326;2022-10-22T04:13:31;23.10;51.80
51613;DHT22;37694;51.748;14.326;2022-10-22T04:16:10;23.10;51.90
51613;DHT22;37694;51.748;14.326;2022-10-22T04:18:37;23.10;51.80
51613;DHT22;37694;51.748;14.326;2022-10-22T04:21:03;23.00;51.80
51613;DHT22;37694;51.748;14.326;2022-10-22T04:23:29;23.10;51.80
51613;DHT22;37694;51.748;14.326;2022-10-22T04:26:02;23.10;51.80
51613;DHT22;37694;51.748;14.326;2022-10-22T04:28:28;23.10;51.80
51613;DHT22;37694;51.748;14.326;2022-10-22T04:30:53;23.00;51.80
51613;DHT22;37694;51.748;14.326;2022-10-22T04:33:19;23.00;51.70
51613;DHT22;37694;51.748;14.326;2022-10-22T04:35:45;23.00;51.60
51613;DHT22;37694;51.748;14.326;2022-10-22T04:38:10;23.00;51.70
51613;DHT22;37694;51.748;14.326;2022-10-22T04:40:36;23.10;51.80
51613;DHT22;37694;51.748;14.326;2022-10-22T04:43:01;23.00;51.70
51613;DHT22;37694;51.748;14.326;2022-10-22T04:45:27;23.00;51.70
51613;DHT22;37694;51.748;14.326;2022-10-22T04:47:53;23.00;51.80
51613;DHT22;37694;51.748;14.326;2022-10-22T04:50:18;23.00;51.80
51613;DHT22;37694;51.748;14.326;2022-10-22T04:52:44;23.00;51.80
51613;DHT22;37694;51.748;14.326;2022-10-22T04:55:10;23.00;51.80
51613;DHT22;37694;51.748;14.326;2022-10-22T04:57:35;23.00;51.80
51613;DHT22;37694;51.748;14.326;2022-10-22T05:00:01;23.00;51.80
51613;DHT22;37694;51.748;14.326;2022-10-22T05:02:26;23.00;51.80
51613;DHT22;37694;51.748;14.326;2022-10-22T05:04:52;23.00;51.80
51613;DHT22;37694;51.748;14.326;2022-10-22T05:07:17;23.00;51.70
51613;DHT22;37694;51.748;14.326;2022-10-22T05:09:43;23.00;51.80
51613;DHT22;37694;51.748;14.326;2022-10-22T05:12:09;23.00;51.80
51613;DHT22;37694;51.748;14.326;2022-10-22T05:14:34;23.00;51.80
51613;DHT22;37694;51.748;14.326;2022-10-22T05:17:00;23.00;51.90
51613;DHT22;37694;51.748;14.326;2022-10-22T05:19:28;23.00;51.80
51613;DHT22;37694;51.748;14.326;2022-10-22T05:22:01;23.00;51.80
51613;DHT22;37694;51.748;14.326;2022-10-22T05:24:28;23.00;51.70
51613;DHT22;37694;51.748;14.326;2022-10-22T05:26:56;23.00;51.80
51613;DHT22;37694;51.748;14.326;2022-10-22T05:29:23;23.00;51.80
51613;DHT22;37694;51.748;14.326;2022-10-22T05:31:51;23.00;51.80
51613;DHT22;37694;51.748;14.326;2022-10-22T05:34:18;23.00;51.70
51613;DHT22;37694;51.748;14.326;2022-10-22T05:36:43;23.00;51.80
51613;DHT22;37694;51.748;14.326;2022-10-22T05:39:09;23.00;52.20
51613;DHT22;37694;51.748;14.326;2022-10-22T05:41:35;23.00;52.50
51613;DHT22;37694;51.748;14.326;2022-10-22T05:44:01;23.10;52.60
51613;DHT22;37694;51.748;14.326;2022-10-22T05:46:28;23.20;52.60
51613;DHT22;37694;51.748;14.326;2022-10-22T05:48:56;23.20;52.70
51613;DHT22;37694;51.748;14.326;2022-10-22T05:51:24;23.30;52.70
51613;DHT22;37694;51.748;14.326;2022-10-22T05:53:52;23.40;52.80
51613;DHT22;37694;51.748;14.326;2022-10-22T05:56:18;23.40;52.70
51613;DHT22;37694;51.748;14.326;2022-10-22T05:58:44;23.40;52.90
51613;DHT22;37694;51.748;14.326;2022-10-22T06:01:16;23.50;53.10
51613;DHT22;37694;51.748;14.326;2022-10-22T06:03:42;23.50;53.20
51613;DHT22;37694;51.748;14.326;2022-10-22T06:06:32;23.50;53.20
51613;DHT22;37694;51.748;14.326;2022-10-22T06:11:35;23.60;53.30
51613;DHT22;37694;51.748;14.326;2022-10-22T06:14:01;23.60;53.30
51613;DHT22;37694;51.748;14.326;2022-10-22T06:16:30;23.60;53.40
51613;DHT22;37694;51.748;14.326;2022-10-22T06:18:58;23.70;53.40
51613;DHT22;37694;51.748;14.326;2022-10-22T06:21:26;23.70;53.60
51613;DHT22;37694;51.748;14.326;2022-10-22T06:23:54;23.70;53.60
51613;DHT22;37694;51.748;14.326;2022-10-22T06:26:19;23.70;53.60
51613;DHT22;37694;51.748;14.326;2022-10-22T06:28:45;23.80;53.60
51613;DHT22;37694;51.748;14.326;2022-10-22T06:31:11;23.80;53.80
51613;DHT22;37694;51.748;14.326;2022-10-22T06:33:36;23.80;53.70
51613;DHT22;37694;51.748;14.326;2022-10-22T06:36:19;23.80;54.40
51613;DHT22;37694;51.748;14.326;2022-10-22T06:38:44;23.80;53.70
51613;DHT22;37694;51.748;14.326;2022-10-22T06:41:13;23.90;53.60
51613;DHT22;37694;51.748;14.326;2022-10-22T06:43:40;23.90;53.70
51613;DHT22;37694;51.748;14.326;2022-10-22T06:46:08;23.90;53.60
51613;DHT22;37694;51.748;14.326;2022-10-22T06:48:37;23.90;53.50
51613;DHT22;37694;51.748;14.326;2022-10-22T06:51:09;23.90;53.50
51613;DHT22;37694;51.748;14.326;2022-10-22T06:53:36;23.90;53.60
51613;DHT22;37694;51.748;14.326;2022-10-22T06:56:10;23.90;53.60
51613;DHT22;37694;51.748;14.326;2022-10-22T06:58:36;23.90;53.60
51613;DHT22;37694;51.748;14.326;2022-10-22T07:01:07;23.90;53.60
51613;DHT22;37694;51.748;14.326;2022-10-22T07:03:34;23.90;53.60
51613;DHT22;37694;51.748;14.326;2022-10-22T07:06:05;23.90;53.90
51613;DHT22;37694;51.748;14.326;2022-10-22T07:08:31;23.90;54.00
51613;DHT22;37694;51.748;14.326;2022-10-22T07:11:21;23.90;53.90
51613;DHT22;37694;51.748;14.326;2022-10-22T07:13:47;24.00;53.90
51613;DHT22;37694;51.748;14.326;2022-10-22T07:16:13;24.00;54.10
51613;DHT22;37694;51.748;14.326;2022-10-22T07:18:40;24.00;53.90
51613;DHT22;37694;51.748;14.326;2022-10-22T07:21:06;24.00;53.80
51613;DHT22;37694;51.748;14.326;2022-10-22T07:23:32;24.00;53.90
51613;DHT22;37694;51.748;14.326;2022-10-22T07:25:58;24.00;53.70
51613;DHT22;37694;51.748;14.326;2022-10-22T07:28:24;24.00;53.80
51613;DHT22;37694;51.748;14.326;2022-10-22T07:30:49;24.00;53.80
51613;DHT22;37694;51.748;14.326;2022-10-22T07:33:15;24.00;53.80
51613;DHT22;37694;51.748;14.326;2022-10-22T07:35:41;24.00;53.80
51613;DHT22;37694;51.748;14.326;2022-10-22T07:38:07;24.10;53.60
51613;DHT22;37694;51.748;14.326;2022-10-22T07:40:34;24.00;53.60
51613;DHT22;37694;51.748;14.326;2022-10-22T07:42:59;24.00;53.70
51613;DHT22;37694;51.748;14.326;2022-10-22T07:45:25;24.00;53.50
51613;DHT22;37694;51.748;14.326;2022-10-22T07:47:51;24.00;53.70
51613;DHT22;37694;51.748;14.326;2022-10-22T07:50:16;24.00;53.60
51613;DHT22;37694;51.748;14.326;2022-10-22T07:52:42;24.00;53.60
51613;DHT22;37694;51.748;14.326;2022-10-22T07:55:08;24.00;53.50
51613;DHT22;37694;51.748;14.326;2022-10-22T07:57:34;24.00;53.50
51613;DHT22;37694;51.748;14.326;2022-10-22T08:00:05;24.00;53.40
51613;DHT22;37694;51.748;14.326;2022-10-22T08:02:31;24.00;53.20
51613;DHT22;37694;51.748;14.326;2022-10-22T08:04:56;24.00;54.30
51613;DHT22;37694;51.748;14.326;2022-10-22T08:07:22;24.00;53.60
51613;DHT22;37694;51.748;14.326;2022-10-22T08:09:48;24.10;53.60
51613;DHT22;37694;51.748;14.326;2022-10-22T08:12:14;24.00;53.40
51613;DHT22;37694;51.748;14.326;2022-10-22T08:14:39;24.00;53.30
51613;DHT22;37694;51.748;14.326;2022-10-22T08:17:05;24.00;53.30
51613;DHT22;37694;51.748;14.326;2022-10-22T08:19:30;24.00;53.10
51613;DHT22;37694;51.748;14.326;2022-10-22T08:21:57;24.00;52.80
51613;DHT22;37694;51.748;14.326;2022-10-22T08:24:23;24.10;52.80
51613;DHT22;37694;51.748;14.326;2022-10-22T08:26:48;24.00;52.80
51613;DHT22;37694;51.748;14.326;2022-10-22T08:29:14;24.00;52.80
51613;DHT22;37694;51.748;14.326;2022-10-22T08:31:40;24.00;52.80
51613;DHT22;37694;51.748;14.326;2022-10-22T08:34:05;24.00;52.80
51613;DHT22;37694;51.748;14.326;2022-10-22T08:36:32;24.00;52.80
51613;DHT22;37694;51.748;14.326;2022-10-22T08:38:58;24.00;52.70
51613;DHT22;37694;51.748;14.326;2022-10-22T08:41:24;24.00;52.80
51613;DHT22;37694;51.748;14.326;2022-10-22T08:49:39;24.00;52.80
51613;DHT22;37694;51.748;14.326;2022-10-22T08:52:11;24.00;52.70
51613;DHT22;37694;51.748;14.326;2022-10-22T08:57:39;24.00;52.70
51613;DHT22;37694;51.748;14.326;2022-10-22T09:00:19;23.90;52.60
51613;DHT22;37694;51.748;14.326;2022-10-22T09:03:06;23.90;52.70
51613;DHT22;37694;51.748;14.326;2022-10-22T09:08:11;23.90;52.40
51613;DHT22;37694;51.748;14.326;2022-10-22T09:10:42;23.90;52.50
51613;DHT22;37694;51.748;14.326;2022-10-22T09:13:15;23.90;52.40
51613;DHT22;37694;51.748;14.326;2022-10-22T09:15:40;23.90;52.60
51613;DHT22;37694;51.748;14.326;2022-10-22T09:24:32;24.00;52.80
51613;DHT22;37694;51.748;14.326;2022-10-22T09:26:59;23.90;53.30
51613;DHT22;37694;51.748;14.326;2022-10-22T09:29:31;23.90;52.60
51613;DHT22;37694;51.748;14.326;2022-10-22T09:31:57;24.00;52.50
51613;DHT22;37694;51.748;14.326;2022-10-22T09:34:23;24.00;52.60
51613;DHT22;37694;51.748;14.326;2022-10-22T09:37:03;24.00;52.50
51613;DHT22;37694;51.748;14.326;2022-10-22T09:39:38;24.00;52.30
51613;DHT22;37694;51.748;14.326;2022-10-22T09:42:05;24.00;52.30
51613;DHT22;37694;51.748;14.326;2022-10-22T09:44:36;24.00;52.30
51613;DHT22;37694;51.748;14.326;2022-10-22T09:47:32;24.00;52.20
51613;DHT22;37694;51.748;14.326;2022-10-22T09:50:25;24.00;52.20
51613;DHT22;37694;51.748;14.326;2022-10-22T09:53:03;24.00;52.30
51613;DHT22;37694;51.748;14.326;2022-10-22T09:55:29;24.00;52.30
51613;DHT22;37694;51.748;14.326;2022-10-22T09:57:57;24.00;52.40
51613;DHT22;37694;51.748;14.326;2022-10-22T10:00:24;24.00;52.40
51613;DHT22;37694;51.748;14.326;2022-10-22T10:02:54;24.00;52.30
51613;DHT22;37694;51.748;14.326;2022-10-22T10:05:34;24.00;52.40
51613;DHT22;37694;51.748;14.326;2022-10-22T10:08:18;24.00;52.30
51613;DHT22;37694;51.748;14.326;2022-10-22T10:10:47;24.00;52.30
51613;DHT22;37694;51.748;14.326;2022-10-22T10:18:46;24.00;52.50
51613;DHT22;37694;51.748;14.326;2022-10-22T10:21:29;24.00;52.30
51613;DHT22;37694;51.748;14.326;2022-10-22T10:26:57;24.00;52.60
51613;DHT22;37694;51.748;14.326;2022-10-22T10:32:18;24.00;52.80
51613;DHT22;37694;51.748;14.326;2022-10-22T10:37:55;24.10;52.80
51613;DHT22;37694;51.748;14.326;2022-10-22T10:54:19;24.10;53.10
51613;DHT22;37694;51.748;14.326;2022-10-22T10:59:24;24.10;53.40
51613;DHT22;37694;51.748;14.326;2022-10-22T11:05:43;24.20;53.40
51613;DHT22;37694;51.748;14.326;2022-10-22T11:07:51;24.20;53.10
51613;DHT22;37694;51.748;14.326;2022-10-22T11:10:42;24.20;53.50
51613;DHT22;37694;51.748;14.326;2022-10-22T11:16:25;24.20;54.00
51613;DHT22;37694;51.748;14.326;2022-10-22T11:22:08;24.20;53.20
51613;DHT22;37694;51.748;14.326;2022-10-22T11:24:45;24.20;53.30
51613;DHT22;37694;51.748;14.326;2022-10-22T11:27:24;24.20;53.10
51613;DHT22;37694;51.748;14.326;2022-10-22T11:30:01;24.20;53.10
51613;DHT22;37694;51.748;14.326;2022-10-22T11:32:28;24.20;52.90
51613;DHT22;37694;51.748;14.326;2022-10-22T11:34:57;24.20;52.90
51613;DHT22;37694;51.748;14.326;2022-10-22T11:37:25;24.20;52.90
51613;DHT22;37694;51.748;14.326;2022-10-22T11:39:57;24.30;53.10
51613;DHT22;37694;51.748;14.326;2022-10-22T11:43:06;24.20;53.10
51613;DHT22;37694;51.748;14.326;2022-10-22T11:45:36;24.30;53.10
51613;DHT22;37694;51.748;14.326;2022-10-22T11:48:17;24.20;53.00
51613;DHT22;37694;51.748;14.326;2022-10-22T11:50:49;24.20;52.80
51613;DHT22;37694;51.748;14.326;2022-10-22T12:06:19;24.30;53.00
51613;DHT22;37694;51.748;14.326;2022-10-22T12:16:45;24.30;53.10
51613;DHT22;37694;51.748;14.326;2022-10-22T12:21:37;24.30;52.90
51613;DHT22;37694;51.748;14.326;2022-10-22T12:24:04;24.30;52.90
51613;DHT22;37694;51.748;14.326;2022-10-22T12:26:31;24.30;52.90
51613;DHT22;37694;51.748;14.326;2022-10-22T12:29:00;24.30;52.80
51613;DHT22;37694;51.748;14.326;2022-10-22T12:31:26;24.30;52.90
51613;DHT22;37694;51.748;14.326;2022-10-22T12:33:57;24.30;52.90
51613;DHT22;37694;51.748;14.326;2022-10-22T12:36:34;24.30;52.70
51613;DHT22;37694;51.748;14.326;2022-10-22T12:39:02;24.30;52.90
51613;DHT22;37694;51.748;14.326;2022-10-22T12:41:36;24.30;52.90
51613;DHT22;37694;51.748;14.326;2022-10-22T12:44:04;24.30;52.80
51613;DHT22;37694;51.748;14.326;2022-10-22T12:46:34;24.30;52.80
51613;DHT22;37694;51.748;14.326;2022-10-22T12:49:05;24.40;52.80
51613;DHT22;37694;51.748;14.326;2022-10-22T12:51:32;24.40;53.10
51613;DHT22;37694;51.748;14.326;2022-10-22T12:54:08;24.40;53.00
51613;DHT22;37694;51.748;14.326;2022-10-22T12:56:35;24.50;52.70
51613;DHT22;37694;51.748;14.326;2022-10-22T12:59:05;24.50;52.90
51613;DHT22;37694;51.748;14.326;2022-10-22T13:01:38;24.50;52.70
51613;DHT22;37694;51.748;14.326;2022-10-22T13:06:33;24.50;52.90
51613;DHT22;37694;51.748;14.326;2022-10-22T13:09:06;24.50;52.90
51613;DHT22;37694;51.748;14.326;2022-10-22T13:11:40;24.50;53.00
51613;DHT22;37694;51.748;14.326;2022-10-22T13:23:16;24.60;52.90
51613;DHT22;37694;51.748;14.326;2022-10-22T13:27:43;24.60;53.00
51613;DHT22;37694;51.748;14.326;2022-10-22T13:30:17;24.60;53.30
51613;DHT22;37694;51.748;14.326;2022-10-22T13:32:52;24.60;53.10
51613;DHT22;37694;51.748;14.326;2022-10-22T13:35:22;24.60;53.00
51613;DHT22;37694;51.748;14.326;2022-10-22T13:37:48;24.60;52.90
51613;DHT22;37694;51.748;14.326;2022-10-22T13:40:14;24.60;53.10
51613;DHT22;37694;51.748;14.326;2022-10-22T13:42:39;24.60;53.00
51613;DHT22;37694;51.748;14.326;2022-10-22T13:45:05;24.70;54.00
51613;DHT22;37694;51.748;14.326;2022-10-22T13:47:32;24.70;53.00
51613;DHT22;37694;51.748;14.326;2022-10-22T13:50:00;24.70;53.00
51613;DHT22;37694;51.748;14.326;2022-10-22T13:52:37;24.70;52.90
51613;DHT22;37694;51.748;14.326;2022-10-22T13:55:28;24.70;52.80
51613;DHT22;37694;51.748;14.326;2022-10-22T13:57:57;24.70;53.60
51613;DHT22;37694;51.748;14.326;2022-10-22T14:00:24;24.70;52.90
51613;DHT22;37694;51.748;14.326;2022-10-22T14:02:53;24.70;52.90
51613;DHT22;37694;51.748;14.326;2022-10-22T14:05:20;24.70;52.80
51613;DHT22;37694;51.748;14.326;2022-10-22T14:07:46;24.70;53.00
51613;DHT22;37694;51.748;14.326;2022-10-22T14:10:22;24.70;53.10
51613;DHT22;37694;51.748;14.326;2022-10-22T14:12:49;24.70;52.90
51613;DHT22;37694;51.748;14.326;2022-10-22T14:15:17;24.70;53.10
51613;DHT22;37694;51.748;14.326;2022-10-22T14:17:46;24.70;53.10
51613;DHT22;37694;51.748;14.326;2022-10-22T14:20:25;24.70;53.00
51613;DHT22;37694;51.748;14.326;2022-10-22T14:22:52;24.70;53.10
51613;DHT22;37694;51.748;14.326;2022-10-22T14:25:22;24.70;52.90
51613;DHT22;37694;51.748;14.326;2022-10-22T14:27:48;24.70;52.90
51613;DHT22;37694;51.748;14.326;2022-10-22T14:30:19;24.70;52.70
51613;DHT22;37694;51.748;14.326;2022-10-22T14:32:44;24.70;52.40
51613;DHT22;37694;51.748;14.326;2022-10-22T14:35:15;24.70;52.40
51613;DHT22;37694;51.748;14.326;2022-10-22T14:37:41;24.70;52.50
51613;DHT22;37694;51.748;14.326;2022-10-22T14:40:10;24.70;52.50
51613;DHT22;37694;51.748;14.326;2022-10-22T14:42:40;24.70;52.50
51613;DHT22;37694;51.748;14.326;2022-10-22T14:45:19;24.70;52.50
51613;DHT22;37694;51.748;14.326;2022-10-22T14:47:45;24.70;52.60
51613;DHT22;37694;51.748;14.326;2022-10-22T14:50:11;24.70;52.60
51613;DHT22;37694;51.748;14.326;2022-10-22T14:52:38;24.70;52.50
51613;DHT22;37694;51.748;14.326;2022-10-22T14:55:04;24.60;52.60
51613;DHT22;37694;51.748;14.326;2022-10-22T14:57:30;24.60;52.60
51613;DHT22;37694;51.748;14.326;2022-10-22T14:59:55;24.60;52.50
51613;DHT22;37694;51.748;14.326;2022-10-22T15:02:21;24.60;52.60
51613;DHT22;37694;51.748;14.326;2022-10-22T15:04:47;24.60;52.50
51613;DHT22;37694;51.748;14.326;2022-10-22T15:07:13;24.60;52.60
51613;DHT22;37694;51.748;14.326;2022-10-22T15:09:39;24.60;52.70
51613;DHT22;37694;51.748;14.326;2022-10-22T15:12:05;24.60;52.90
51613;DHT22;37694;51.748;14.326;2022-10-22T15:14:30;24.50;52.90
51613;DHT22;37694;51.748;14.326;2022-10-22T15:16:57;24.50;53.00
51613;DHT22;37694;51.748;14.326;2022-10-22T15:19:23;24.50;53.20
51613;DHT22;37694;51.748;14.326;2022-10-22T15:21:49;24.50;53.40
51613;DHT22;37694;51.748;14.326;2022-10-22T15:24:14;24.50;53.60
51613;DHT22;37694;51.748;14.326;2022-10-22T15:26:40;24.50;53.80
51613;DHT22;37694;51.748;14.326;2022-10-22T15:29:05;24.50;53.60
51613;DHT22;37694;51.748;14.326;2022-10-22T15:31:49;24.50;53.80
51613;DHT22;37694;51.748;14.326;2022-10-22T15:34:23;24.50;54.10
51613;DHT22;37694;51.748;14.326;2022-10-22T15:36:50;24.50;54.10
51613;DHT22;37694;51.748;14.326;2022-10-22T15:39:16;24.40;54.60
51613;DHT22;37694;51.748;14.326;2022-10-22T15:41:42;24.40;54.60
51613;DHT22;37694;51.748;14.326;2022-10-22T15:44:14;24.40;54.90
51613;DHT22;37694;51.748;14.326;2022-10-22T15:46:40;24.40;55.20
51613;DHT22;37694;51.748;14.326;2022-10-22T15:49:05;24.40;55.40
51613;DHT22;37694;51.748;14.326;2022-10-22T15:51:31;24.40;55.40
51613;DHT22;37694;51.748;14.326;2022-10-22T15:53:58;24.40;55.60
51613;DHT22;37694;51.748;14.326;2022-10-22T15:56:26;24.40;55.90
51613;DHT22;37694;51.748;14.326;2022-10-22T15:58:57;24.40;56.30
51613;DHT22;37694;51.748;14.326;2022-10-22T16:01:24;24.40;56.60
51613;DHT22;37694;51.748;14.326;2022-10-22T16:03:50;24.40;56.60
51613;DHT22;37694;51.748;14.326;2022-10-22T16:06:25;24.40;55.90
51613;DHT22;37694;51.748;14.326;2022-10-22T16:08:52;24.40;56.70
51613;DHT22;37694;51.748;14.326;2022-10-22T16:11:19;24.50;56.90
51613;DHT22;37694;51.748;14.326;2022-10-22T16:13:44;24.50;57.50
51613;DHT22;37694;51.748;14.326;2022-10-22T16:16:10;24.50;56.80
51613;DHT22;37694;51.748;14.326;2022-10-22T16:18:35;24.50;56.80
51613;DHT22;37694;51.748;14.326;2022-10-22T16:21:01;24.50;56.40
51613;DHT22;37694;51.748;14.326;2022-10-22T16:23:27;24.40;56.60
51613;DHT22;37694;51.748;14.326;2022-10-22T16:25:52;24.40;56.10
51613;DHT22;37694;51.748;14.326;2022-10-22T16:28:18;24.40;56.00
51613;DHT22;37694;51.748;14.326;2022-10-22T16:30:44;24.40;56.10
51613;DHT22;37694;51.748;14.326;2022-10-22T16:33:10;24.30;55.90
51613;DHT22;37694;51.748;14.326;2022-10-22T16:35:41;24.30;56.00
51613;DHT22;37694;51.748;14.326;2022-10-22T16:38:09;24.30;56.00
51613;DHT22;37694;51.748;14.326;2022-10-22T16:40:35;24.30;56.10
51613;DHT22;37694;51.748;14.326;2022-10-22T16:43:01;24.30;56.10
51613;DHT22;37694;51.748;14.326;2022-10-22T16:45:26;24.30;55.80
51613;DHT22;37694;51.748;14.326;2022-10-22T16:47:52;24.30;56.30
51613;DHT22;37694;51.748;14.326;2022-10-22T16:50:17;24.30;55.70
51613;DHT22;37694;51.748;14.326;2022-10-22T16:52:43;24.30;56.00
51613;DHT22;37694;51.748;14.326;2022-10-22T16:55:08;24.30;55.80
51613;DHT22;37694;51.748;14.326;2022-10-22T16:57:34;24.30;55.90
51613;DHT22;37694;51.748;14.326;2022-10-22T17:00:00;24.30;55.90
51613;DHT22;37694;51.748;14.326;2022-10-22T17:02:26;24.30;55.70
51613;DHT22;37694;51.748;14.326;2022-10-22T17:04:52;24.30;55.70
51613;DHT22;37694;51.748;14.326;2022-10-22T17:07:17;24.30;55.50
51613;DHT22;37694;51.748;14.326;2022-10-22T17:09:43;24.30;55.50
51613;DHT22;37694;51.748;14.326;2022-10-22T17:12:08;24.30;55.60
51613;DHT22;37694;51.748;14.326;2022-10-22T17:14:34;24.30;55.50
51613;DHT22;37694;51.748;14.326;2022-10-22T17:16:59;24.30;55.70
51613;DHT22;37694;51.748;14.326;2022-10-22T17:19:26;24.30;55.80
51613;DHT22;37694;51.748;14.326;2022-10-22T17:21:51;24.30;55.90
51613;DHT22;37694;51.748;14.326;2022-10-22T17:24:18;24.30;56.60
51613;DHT22;37694;51.748;14.326;2022-10-22T17:26:44;24.30;56.80
51613;DHT22;37694;51.748;14.326;2022-10-22T17:29:10;24.30;57.00
51613;DHT22;37694;51.748;14.326;2022-10-22T17:31:37;24.30;56.80